createdAt,value
2023-03-22T00:00:25.191Z,112.20
2023-03-22T00:01:25.178Z,104.00
2023-03-22T00:02:25.217Z,114.20
2023-03-22T00:03:25.199Z,103.30
2023-03-22T00:04:25.168Z,99.90
2023-03-22T00:05:25.179Z,120.10
2023-03-22T00:06:25.179Z,96.60
2023-03-22T00:07:25.185Z,118.50
2023-03-22T00:08:25.141Z,110.40
2023-03-22T00:09:25.163Z,104.20
2023-03-22T00:10:25.153Z,102.00
2023-03-22T00:11:25.145Z,106.30
2023-03-22T00:12:25.119Z,116.20
2023-03-22T00:13:25.113Z,114.00
2023-03-22T00:14:25.165Z,115.70
2023-03-22T00:15:25.128Z,124.30
2023-03-22T00:16:25.111Z,106.60
2023-03-22T00:17:25.088Z,115.50
2023-03-22T00:18:25.082Z,98.30
2023-03-22T00:19:25.112Z,95.40
2023-03-22T00:20:25.075Z,101.00
2023-03-22T00:21:25.050Z,92.70
2023-03-22T00:22:25.058Z,100.10
2023-03-22T00:23:25.060Z,99.80
2023-03-22T00:24:25.106Z,96.80
2023-03-22T00:25:25.093Z,105.40
2023-03-22T00:26:25.093Z,114.60
2023-03-22T00:27:25.034Z,122.50
2023-03-22T00:28:25.032Z,94.10
2023-03-22T00:29:25.055Z,103.40
2023-03-22T00:30:25.047Z,101.10
2023-03-22T00:31:25.049Z,118.50
2023-03-22T00:32:25.021Z,114.30
2023-03-22T00:33:24.995Z,82.30
2023-03-22T00:34:24.995Z,68.70
2023-03-22T00:35:25.074Z,71.80
2023-03-22T00:36:24.997Z,66.80
2023-03-22T00:37:24.975Z,64.10
2023-03-22T00:38:35.931Z,53.50
2023-03-22T00:39:27.022Z,60.50
2023-03-22T00:40:25.035Z,58.40
2023-03-22T00:41:24.987Z,66.70
2023-03-22T00:42:24.963Z,59.30
2023-03-22T00:43:24.956Z,62.50
2023-03-22T00:44:25.012Z,70.90
2023-03-22T00:45:24.949Z,60.10
2023-03-22T00:46:24.994Z,59.80
2023-03-22T00:47:24.953Z,52.60
2023-03-22T00:48:24.996Z,55.40
2023-03-22T00:49:24.920Z,57.30
2023-03-22T00:50:24.916Z,55.50
2023-03-22T00:51:24.954Z,45.90
2023-03-22T00:52:24.961Z,52.60
2023-03-22T00:53:24.944Z,65.20
2023-03-22T00:54:24.950Z,57.50
2023-03-22T00:55:24.932Z,50.20
2023-03-22T00:56:24.886Z,48.10
2023-03-22T00:57:24.905Z,52.80
2023-03-22T00:58:24.878Z,54.40
2023-03-22T00:59:24.920Z,52.50
2023-03-22T01:00:24.856Z,51.60
2023-03-22T01:01:24.913Z,61.00
2023-03-22T01:02:24.882Z,54.90
2023-03-22T01:03:24.896Z,54.90
2023-03-22T01:04:24.873Z,67.00
2023-03-22T01:05:24.816Z,64.60
2023-03-22T01:06:24.826Z,62.90
2023-03-22T01:07:24.837Z,62.00
2023-03-22T01:08:24.814Z,60.30
2023-03-22T01:09:24.856Z,67.20
2023-03-22T01:10:24.794Z,58.80
2023-03-22T01:11:24.791Z,58.20
2023-03-22T01:12:24.805Z,56.60
2023-03-22T01:13:24.852Z,52.70
2023-03-22T01:14:24.790Z,50.30
2023-03-22T01:15:24.804Z,50.80
2023-03-22T01:16:24.857Z,52.40
2023-03-22T01:17:24.780Z,54.20
2023-03-22T01:18:24.812Z,49.20
2023-03-22T01:19:24.775Z,57.30
2023-03-22T01:20:24.728Z,68.70
2023-03-22T01:21:24.737Z,54.90
2023-03-22T01:22:24.791Z,47.90
2023-03-22T01:23:24.700Z,56.60
2023-03-22T01:24:24.722Z,60.20
2023-03-22T01:25:24.736Z,64.60
2023-03-22T01:26:24.716Z,58.50
2023-03-22T01:27:24.698Z,67.10
2023-03-22T01:28:26.979Z,73.10
2023-03-22T01:29:24.699Z,77.50
2023-03-22T01:30:24.821Z,70.40
2023-03-22T01:31:24.672Z,73.90
2023-03-22T01:32:24.693Z,68.10
2023-03-22T01:33:24.672Z,70.10
2023-03-22T01:34:24.649Z,67.90
2023-03-22T01:35:24.688Z,58.80
2023-03-22T01:36:24.681Z,44.30
2023-03-22T01:37:24.646Z,49.20
2023-03-22T01:38:24.642Z,54.20
2023-03-22T01:39:24.627Z,53.70
2023-03-22T01:40:24.670Z,70.80
2023-03-22T01:41:24.662Z,58.80
2023-03-22T01:42:24.741Z,61.80
2023-03-22T01:43:24.599Z,68.80
2023-03-22T01:44:24.663Z,57.70
2023-03-22T01:45:24.647Z,52.40
2023-03-22T01:46:24.642Z,65.50
2023-03-22T01:47:24.578Z,61.80
2023-03-22T01:48:24.654Z,52.00
2023-03-22T01:49:24.682Z,61.00
2023-03-22T01:50:24.580Z,62.30
2023-03-22T01:51:24.586Z,56.70
2023-03-22T01:52:24.558Z,55.80
2023-03-22T01:53:24.548Z,60.90
2023-03-22T01:54:24.563Z,63.30
2023-03-22T01:55:24.530Z,71.40
2023-03-22T01:56:24.549Z,71.60
2023-03-22T01:57:24.551Z,61.60
2023-03-22T01:58:24.553Z,60.60
2023-03-22T01:59:24.572Z,72.00
2023-03-22T02:00:24.515Z,63.60
2023-03-22T02:01:24.554Z,69.20
2023-03-22T02:02:24.570Z,65.60
2023-03-22T02:03:24.480Z,63.90
2023-03-22T02:04:24.573Z,86.10
2023-03-22T02:05:24.483Z,71.10
2023-03-22T02:06:24.504Z,79.40
2023-03-22T02:07:24.501Z,74.70
2023-03-22T02:08:24.489Z,81.30
2023-03-22T02:09:24.477Z,80.20
2023-03-22T02:10:24.452Z,78.10
2023-03-22T02:11:24.491Z,72.30
2023-03-22T02:12:24.460Z,74.50
2023-03-22T02:13:24.438Z,61.90
2023-03-22T02:14:26.816Z,86.60
2023-03-22T02:15:24.435Z,95.60
2023-03-22T02:16:24.529Z,106.60
2023-03-22T02:17:24.414Z,81.20
2023-03-22T02:18:24.435Z,84.70
2023-03-22T02:19:24.405Z,80.90
2023-03-22T02:20:24.393Z,77.40
2023-03-22T02:21:24.404Z,79.50
2023-03-22T02:22:24.378Z,76.90
2023-03-22T02:23:24.444Z,75.40
2023-03-22T02:24:24.408Z,89.10
2023-03-22T02:25:24.348Z,69.20
2023-03-22T02:26:24.356Z,93.40
2023-03-22T02:27:24.351Z,79.40
2023-03-22T02:28:24.338Z,83.40
2023-03-22T02:29:24.426Z,89.00
2023-03-22T02:30:24.344Z,93.70
2023-03-22T02:31:24.395Z,104.20
2023-03-22T02:32:24.319Z,98.10
2023-03-22T02:33:24.337Z,100.20
2023-03-22T02:34:24.371Z,106.70
2023-03-22T02:35:24.337Z,84.00
2023-03-22T02:36:24.309Z,95.80
2023-03-22T02:37:24.295Z,111.60
2023-03-22T02:38:24.317Z,107.90
2023-03-22T02:39:24.270Z,111.50
2023-03-22T02:40:25.334Z,112.60
2023-03-22T02:41:24.308Z,103.90
2023-03-22T02:42:24.273Z,93.40
2023-03-22T02:43:24.305Z,86.00
2023-03-22T02:44:24.270Z,92.20
2023-03-22T02:45:24.346Z,86.70
2023-03-22T02:46:24.274Z,86.60
2023-03-22T02:47:24.269Z,100.80
2023-03-22T02:48:24.254Z,100.80
2023-03-22T02:49:24.236Z,108.90
2023-03-22T02:50:24.282Z,105.00
2023-03-22T02:51:24.260Z,112.70
2023-03-22T02:52:24.221Z,97.60
2023-03-22T02:53:24.235Z,119.20
2023-03-22T02:54:24.209Z,115.80
2023-03-22T02:55:24.186Z,105.90
2023-03-22T02:56:24.253Z,132.20
2023-03-22T02:57:24.228Z,136.80
2023-03-22T02:58:24.180Z,149.70
2023-03-22T02:59:24.187Z,118.30
2023-03-22T03:00:24.165Z,136.60
2023-03-22T03:01:24.266Z,136.50
2023-03-22T03:02:24.254Z,126.60
2023-03-22T03:03:24.161Z,117.40
2023-03-22T03:04:24.165Z,101.90
2023-03-22T03:05:24.149Z,123.60
2023-03-22T03:06:24.145Z,156.80
2023-03-22T03:07:24.188Z,154.80
2023-03-22T03:08:24.122Z,176.60
2023-03-22T03:09:24.120Z,144.00
2023-03-22T03:10:24.120Z,158.30
2023-03-22T03:11:24.136Z,144.40
2023-03-22T03:12:24.111Z,145.40
2023-03-22T03:13:24.101Z,151.10
2023-03-22T03:14:24.122Z,157.50
2023-03-22T03:15:24.104Z,145.10
2023-03-22T03:16:24.127Z,153.80
2023-03-22T03:17:24.133Z,158.60
2023-03-22T03:18:24.065Z,158.30
2023-03-22T03:19:24.057Z,153.70
2023-03-22T03:20:24.061Z,172.90
2023-03-22T03:21:25.142Z,186.80
2023-03-22T03:22:24.087Z,172.60
2023-03-22T03:23:24.044Z,158.10
2023-03-22T03:24:24.040Z,172.80
2023-03-22T03:25:24.037Z,150.20
2023-03-22T03:26:24.085Z,157.60
2023-03-22T03:27:24.146Z,152.90
2023-03-22T03:28:24.108Z,159.20
2023-03-22T03:29:24.013Z,154.10
2023-03-22T03:30:24.020Z,153.50
2023-03-22T03:31:24.084Z,159.50
2023-03-22T03:32:23.978Z,150.50
2023-03-22T03:33:24.026Z,149.20
2023-03-22T03:34:23.997Z,128.70
2023-03-22T03:35:24.008Z,125.50
2023-03-22T03:36:24.022Z,128.40
2023-03-22T03:37:23.998Z,180.30
2023-03-22T03:38:23.962Z,156.90
2023-03-22T03:39:23.967Z,133.00
2023-03-22T03:40:23.970Z,141.40
2023-03-22T03:41:23.935Z,142.90
2023-03-22T03:42:23.966Z,231.20
2023-03-22T03:43:23.924Z,255.00
2023-03-22T03:44:23.992Z,195.00
2023-03-22T03:45:23.902Z,223.40
2023-03-22T03:46:23.925Z,181.50
2023-03-22T03:47:23.938Z,249.90
2023-03-22T03:48:23.995Z,169.50
2023-03-22T03:49:23.927Z,164.90
2023-03-22T03:50:23.893Z,180.00
2023-03-22T03:51:23.909Z,163.60
2023-03-22T03:52:23.891Z,158.10
2023-03-22T03:53:23.910Z,160.20
2023-03-22T03:54:23.913Z,159.30
2023-03-22T03:55:23.900Z,154.00
2023-03-22T03:56:23.852Z,169.40
2023-03-22T03:57:23.832Z,167.70
2023-03-22T03:58:23.878Z,153.90
2023-03-22T03:59:23.860Z,116.30
2023-03-22T04:00:23.926Z,134.00
2023-03-22T04:01:23.879Z,150.80
2023-03-22T04:02:23.903Z,158.10
2023-03-22T04:03:23.854Z,133.90
2023-03-22T04:04:23.854Z,138.80
2023-03-22T04:05:23.844Z,146.20
2023-03-22T04:06:23.837Z,141.40
2023-03-22T04:07:23.802Z,132.10
2023-03-22T04:08:23.779Z,142.20
2023-03-22T04:09:23.912Z,131.40
2023-03-22T04:10:23.819Z,149.00
2023-03-22T04:11:23.804Z,141.70
2023-03-22T04:12:23.758Z,143.70
2023-03-22T04:13:23.758Z,151.30
2023-03-22T04:14:23.741Z,146.40
2023-03-22T04:15:23.777Z,130.50
2023-03-22T04:16:23.893Z,127.60
2023-03-22T04:17:23.747Z,144.20
2023-03-22T04:18:23.745Z,143.60
2023-03-22T04:19:23.713Z,151.40
2023-03-22T04:20:23.789Z,148.60
2023-03-22T04:21:23.722Z,144.00
2023-03-22T04:22:23.740Z,144.80
2023-03-22T04:23:24.518Z,138.70
2023-03-22T04:24:23.726Z,138.90
2023-03-22T04:25:23.694Z,131.20
2023-03-22T04:26:26.140Z,140.70
2023-03-22T04:27:23.678Z,141.90
2023-03-22T04:28:23.651Z,131.20
2023-03-22T04:29:23.667Z,138.40
2023-03-22T04:30:23.664Z,160.20
2023-03-22T04:31:23.698Z,148.70
2023-03-22T04:32:23.633Z,148.50
2023-03-22T04:33:23.761Z,145.00
2023-03-22T04:34:23.669Z,133.50
2023-03-22T04:35:23.686Z,125.00
2023-03-22T04:36:23.644Z,130.30
2023-03-22T04:37:23.642Z,147.50
2023-03-22T04:38:23.665Z,144.70
2023-03-22T04:39:23.624Z,149.50
2023-03-22T04:40:23.604Z,157.30
2023-03-22T04:41:23.593Z,163.20
2023-03-22T04:42:23.606Z,164.80
2023-03-22T04:43:23.624Z,164.20
2023-03-22T04:44:23.620Z,163.80
2023-03-22T04:45:23.573Z,160.30
2023-03-22T04:46:23.615Z,159.80
2023-03-22T04:47:23.604Z,160.70
2023-03-22T04:48:23.664Z,178.40
2023-03-22T04:49:23.558Z,175.70
2023-03-22T04:50:23.605Z,174.60
2023-03-22T04:51:23.562Z,179.50
2023-03-22T04:52:23.560Z,169.90
2023-03-22T04:53:23.570Z,154.90
2023-03-22T04:54:23.575Z,160.50
2023-03-22T04:55:23.608Z,168.20
2023-03-22T04:56:23.530Z,170.60
2023-03-22T04:57:23.507Z,168.60
2023-03-22T04:58:23.520Z,169.40
2023-03-22T04:59:23.590Z,149.00
2023-03-22T05:00:23.538Z,153.60
2023-03-22T05:01:23.555Z,181.20
2023-03-22T05:02:23.568Z,191.10
2023-03-22T05:03:23.510Z,185.40
2023-03-22T05:04:23.482Z,169.80
2023-03-22T05:05:23.619Z,163.90
2023-03-22T05:06:23.500Z,179.00
2023-03-22T05:07:23.469Z,177.70
2023-03-22T05:08:23.473Z,191.60
2023-03-22T05:09:23.734Z,174.10
2023-03-22T05:10:24.495Z,177.00
2023-03-22T05:11:23.473Z,171.40
2023-03-22T05:12:23.440Z,188.60
2023-03-22T05:13:23.448Z,222.70
2023-03-22T05:14:23.476Z,223.40
2023-03-22T05:15:23.482Z,195.60
2023-03-22T05:16:23.456Z,169.90
2023-03-22T05:17:23.444Z,175.40
2023-03-22T05:18:23.417Z,182.70
2023-03-22T05:19:23.391Z,170.20
2023-03-22T05:20:23.411Z,169.30
2023-03-22T05:21:23.377Z,163.50
2023-03-22T05:22:23.385Z,169.00
2023-03-22T05:23:23.392Z,180.60
2023-03-22T05:24:23.365Z,180.90
2023-03-22T05:25:23.385Z,177.50
2023-03-22T05:26:23.389Z,177.60
2023-03-22T05:27:23.380Z,180.80
2023-03-22T05:28:23.381Z,168.70
2023-03-22T05:29:23.361Z,177.30
2023-03-22T05:30:23.331Z,172.00
2023-03-22T05:31:23.404Z,169.40
2023-03-22T05:32:23.399Z,166.30
2023-03-22T05:33:23.354Z,169.30
2023-03-22T05:34:23.311Z,175.60
2023-03-22T05:35:23.319Z,166.90
2023-03-22T05:36:23.324Z,167.00
2023-03-22T05:37:23.315Z,170.60
2023-03-22T05:38:23.357Z,162.70
2023-03-22T05:39:23.300Z,168.60
2023-03-22T05:40:23.283Z,160.10
2023-03-22T05:41:23.482Z,160.00
2023-03-22T05:42:23.276Z,162.50
2023-03-22T05:43:23.333Z,178.70
2023-03-22T05:44:23.274Z,174.90
2023-03-22T05:45:23.276Z,157.50
2023-03-22T05:46:23.378Z,158.40
2023-03-22T05:47:23.258Z,162.70
2023-03-22T05:48:23.318Z,161.30
2023-03-22T05:49:23.254Z,154.00
2023-03-22T05:50:23.247Z,159.80
2023-03-22T05:51:23.245Z,154.20
2023-03-22T05:52:23.234Z,151.90
2023-03-22T05:53:23.235Z,138.10
2023-03-22T05:54:23.281Z,137.00
2023-03-22T05:55:23.217Z,135.00
2023-03-22T05:56:23.229Z,146.50
2023-03-22T05:57:23.221Z,132.00
2023-03-22T05:58:23.199Z,136.90
2023-03-22T05:59:23.218Z,136.60
2023-03-22T06:00:23.277Z,136.30
2023-03-22T06:01:23.217Z,142.10
2023-03-22T06:02:23.178Z,137.70
2023-03-22T06:03:23.219Z,129.30
2023-03-22T06:04:23.168Z,127.20
2023-03-22T06:05:23.189Z,121.70
2023-03-22T06:06:23.151Z,129.20
2023-03-22T06:07:23.177Z,124.50
2023-03-22T06:08:26.053Z,122.60
2023-03-22T06:09:23.171Z,124.10
2023-03-22T06:10:23.182Z,122.60
2023-03-22T06:11:23.128Z,117.70
2023-03-22T06:12:23.133Z,120.10
2023-03-22T06:13:23.194Z,117.30
2023-03-22T06:14:23.123Z,126.50
2023-03-22T06:15:23.152Z,127.30
2023-03-22T06:16:23.161Z,122.20
2023-03-22T06:17:23.109Z,119.30
2023-03-22T06:18:23.103Z,117.60
2023-03-22T06:19:23.083Z,120.10
2023-03-22T06:20:23.095Z,116.60
2023-03-22T06:21:23.099Z,116.30
2023-03-22T06:22:23.083Z,118.80
2023-03-22T06:23:23.060Z,109.30
2023-03-22T06:24:23.082Z,101.80
2023-03-22T06:25:23.073Z,107.80
2023-03-22T06:26:23.105Z,110.70
2023-03-22T06:27:23.174Z,105.60
2023-03-22T06:28:23.038Z,98.10
2023-03-22T06:29:23.059Z,103.20
2023-03-22T06:30:23.137Z,102.50
2023-03-22T06:31:23.043Z,101.20
2023-03-22T06:32:23.034Z,94.60
2023-03-22T06:33:23.050Z,92.00
2023-03-22T06:34:23.002Z,88.50
2023-03-22T06:35:23.071Z,91.30
2023-03-22T06:36:23.051Z,81.40
2023-03-22T06:37:22.999Z,82.70
2023-03-22T06:38:23.025Z,83.40
2023-03-22T06:39:23.005Z,90.70
2023-03-22T06:40:22.987Z,90.60
2023-03-22T06:41:22.974Z,84.80
2023-03-22T06:42:22.964Z,83.70
2023-03-22T06:43:22.987Z,78.60
2023-03-22T06:44:22.961Z,84.30
2023-03-22T06:45:22.951Z,77.80
2023-03-22T06:46:23.052Z,79.00
2023-03-22T06:47:22.969Z,72.60
2023-03-22T06:48:23.021Z,69.60
2023-03-22T06:49:22.950Z,66.60
2023-03-22T06:50:22.939Z,56.40
2023-03-22T06:51:22.939Z,58.60
2023-03-22T06:52:22.990Z,52.30
2023-03-22T06:53:22.938Z,47.20
2023-03-22T06:54:22.943Z,46.50
2023-03-22T06:55:22.967Z,43.90
2023-03-22T06:56:22.929Z,33.50
2023-03-22T06:57:22.899Z,38.40
2023-03-22T06:58:22.878Z,35.40
2023-03-22T06:59:22.897Z,31.80
2023-03-22T07:00:22.932Z,31.60
2023-03-22T07:01:22.961Z,34.90
2023-03-22T07:02:22.914Z,32.30
2023-03-22T07:03:22.907Z,28.60
2023-03-22T07:04:22.951Z,35.00
2023-03-22T07:05:22.897Z,29.20
2023-03-22T07:06:22.888Z,30.00
2023-03-22T07:07:22.884Z,25.80
2023-03-22T07:08:22.839Z,27.10
2023-03-22T07:09:22.907Z,21.90
2023-03-22T07:10:22.899Z,21.90
2023-03-22T07:11:22.855Z,23.40
2023-03-22T07:12:22.892Z,24.00
2023-03-22T07:13:22.872Z,23.60
2023-03-22T07:14:22.876Z,20.60
2023-03-22T07:15:22.859Z,24.70
2023-03-22T07:16:23.978Z,20.60
2023-03-22T07:17:22.953Z,21.30
2023-03-22T07:18:22.788Z,20.10
2023-03-22T07:19:22.805Z,23.20
2023-03-22T07:20:22.837Z,21.30
2023-03-22T07:21:22.816Z,20.90
2023-03-22T07:22:22.813Z,19.60
2023-03-22T07:23:22.801Z,19.50
2023-03-22T07:24:22.801Z,19.50
2023-03-22T07:25:22.837Z,19.90
2023-03-22T07:26:22.773Z,18.10
2023-03-22T07:27:22.800Z,25.00
2023-03-22T07:28:22.761Z,21.50
2023-03-22T07:29:22.766Z,18.50
2023-03-22T07:30:22.773Z,17.40
2023-03-22T07:31:22.777Z,18.00
2023-03-22T07:32:22.879Z,17.20
2023-03-22T07:33:22.747Z,17.90
2023-03-22T07:34:22.769Z,18.30
2023-03-22T07:35:24.983Z,18.40
2023-03-22T07:36:22.724Z,17.90
2023-03-22T07:37:22.685Z,17.70
2023-03-22T07:38:22.734Z,17.30
2023-03-22T07:39:22.704Z,17.20
2023-03-22T07:40:22.686Z,17.20
2023-03-22T07:41:22.704Z,19.70
2023-03-22T07:42:22.681Z,15.80
2023-03-22T07:43:22.728Z,19.80
2023-03-22T07:44:22.716Z,23.00
2023-03-22T07:45:22.731Z,15.90
2023-03-22T07:46:22.810Z,14.60
2023-03-22T07:47:39.581Z,14.60
2023-03-22T07:48:24.735Z,19.40
2023-03-22T07:49:22.690Z,18.10
2023-03-22T07:50:22.636Z,20.00
2023-03-22T07:51:22.647Z,16.30
2023-03-22T07:52:22.640Z,14.60
2023-03-22T07:53:22.653Z,15.00
2023-03-22T07:54:32.867Z,17.20
2023-03-22T07:55:24.640Z,15.80
2023-03-22T07:56:22.627Z,14.90
2023-03-22T07:57:22.620Z,14.80
2023-03-22T07:58:22.756Z,14.70
2023-03-22T07:59:22.661Z,15.40
2023-03-22T08:00:22.626Z,17.90
2023-03-22T08:01:22.615Z,15.70
2023-03-22T08:02:22.687Z,17.40
2023-03-22T08:03:22.586Z,16.90
2023-03-22T08:04:23.657Z,17.20
2023-03-22T08:05:22.618Z,18.30
2023-03-22T08:06:22.572Z,15.50
2023-03-22T08:07:22.656Z,16.40
2023-03-22T08:08:22.564Z,21.00
2023-03-22T08:09:22.610Z,20.40
2023-03-22T08:10:22.567Z,21.80
2023-03-22T08:11:22.554Z,14.40
2023-03-22T08:12:22.622Z,14.80
2023-03-22T08:13:23.423Z,14.50
2023-03-22T08:14:35.490Z,14.70
2023-03-22T08:15:24.558Z,15.10
2023-03-22T08:16:22.614Z,14.10
2023-03-22T08:17:22.600Z,14.10
2023-03-22T08:18:22.541Z,14.20
2023-03-22T08:19:22.545Z,13.50
2023-03-22T08:20:22.553Z,13.40
2023-03-22T08:21:22.504Z,14.60
2023-03-22T08:22:22.560Z,13.50
2023-03-22T08:23:31.629Z,13.40
2023-03-22T08:24:24.724Z,13.80
2023-03-22T08:25:22.499Z,14.10
2023-03-22T08:26:22.507Z,13.10
2023-03-22T08:27:22.607Z,13.30
2023-03-22T08:28:22.517Z,13.10
2023-03-22T08:29:22.514Z,12.40
2023-03-22T08:30:22.522Z,13.70
2023-03-22T08:31:22.680Z,13.20
2023-03-22T08:32:22.472Z,12.80
2023-03-22T08:33:22.592Z,13.20
2023-03-22T08:34:22.454Z,12.50
2023-03-22T08:35:22.502Z,13.20
2023-03-22T08:36:22.449Z,12.60
2023-03-22T08:37:22.484Z,11.80
2023-03-22T08:38:23.483Z,12.80
2023-03-22T08:39:22.436Z,11.90
2023-03-22T08:40:22.481Z,12.70
2023-03-22T08:41:22.444Z,11.40
2023-03-22T08:42:22.472Z,11.60
2023-03-22T08:43:22.509Z,12.70
2023-03-22T08:44:22.447Z,12.90
2023-03-22T08:45:22.417Z,11.80
2023-03-22T08:46:22.497Z,10.90
2023-03-22T08:47:22.393Z,11.20
2023-03-22T08:48:22.442Z,11.90
2023-03-22T08:49:22.483Z,10.90
2023-03-22T08:50:22.377Z,10.90
2023-03-22T08:51:22.405Z,11.30
2023-03-22T08:52:22.340Z,11.20
2023-03-22T08:53:22.345Z,10.40
2023-03-22T08:54:23.364Z,11.20
2023-03-22T08:55:22.348Z,10.90
2023-03-22T08:56:22.332Z,13.70
2023-03-22T08:57:22.335Z,14.10
2023-03-22T08:58:22.327Z,10.80
2023-03-22T08:59:22.321Z,10.70
2023-03-22T09:00:22.346Z,10.30
2023-03-22T09:01:22.435Z,13.30
2023-03-22T09:02:22.366Z,11.30
2023-03-22T09:03:22.506Z,11.10
2023-03-22T09:04:22.348Z,11.60
2023-03-22T09:05:22.349Z,10.90
2023-03-22T09:06:22.306Z,10.40
2023-03-22T09:07:22.355Z,10.10
2023-03-22T09:08:22.315Z,9.80
2023-03-22T09:09:22.264Z,10.60
2023-03-22T09:10:22.299Z,10.50
2023-03-22T09:11:22.266Z,11.60
2023-03-22T09:12:22.286Z,10.70
2023-03-22T09:13:22.247Z,10.80
2023-03-22T09:14:22.272Z,10.90
2023-03-22T09:15:22.269Z,10.90
2023-03-22T09:16:22.288Z,10.60
2023-03-22T09:17:22.611Z,11.80
2023-03-22T09:18:23.329Z,12.00
2023-03-22T09:19:22.208Z,11.50
2023-03-22T09:20:22.199Z,10.40
2023-03-22T09:21:22.217Z,10.60
2023-03-22T09:22:22.194Z,10.20
2023-03-22T09:23:22.219Z,10.00
2023-03-22T09:24:22.190Z,9.30
2023-03-22T09:25:22.212Z,11.00
2023-03-22T09:26:22.181Z,10.40
2023-03-22T09:27:22.184Z,8.90
2023-03-22T09:28:22.238Z,9.00
2023-03-22T09:29:22.251Z,16.00
2023-03-22T09:30:22.141Z,9.00
2023-03-22T09:31:22.197Z,8.40
2023-03-22T09:32:22.182Z,7.80
2023-03-22T09:33:22.187Z,8.20
2023-03-22T09:34:22.143Z,6.80
2023-03-22T09:35:22.171Z,7.40
2023-03-22T09:36:22.139Z,11.70
2023-03-22T09:37:22.095Z,7.20
2023-03-22T09:38:22.137Z,12.70
2023-03-22T09:39:22.100Z,7.50
2023-03-22T09:40:22.126Z,7.20
2023-03-22T09:41:22.103Z,10.60
2023-03-22T09:42:22.093Z,9.00
2023-03-22T09:43:22.077Z,6.60
2023-03-22T09:44:22.095Z,6.20
2023-03-22T09:45:22.106Z,6.20
2023-03-22T09:46:22.269Z,6.10
2023-03-22T09:47:22.081Z,5.80
2023-03-22T09:48:22.081Z,8.00
2023-03-22T09:49:22.072Z,10.70
2023-03-22T09:50:22.108Z,6.20
2023-03-22T09:51:22.007Z,5.20
2023-03-22T09:52:22.116Z,6.40
2023-03-22T09:53:22.060Z,8.40
2023-03-22T09:54:21.994Z,6.20
2023-03-22T09:55:21.983Z,9.80
2023-03-22T09:56:22.085Z,6.30
2023-03-22T09:57:21.976Z,5.50
2023-03-22T09:58:22.013Z,8.20
2023-03-22T09:59:21.975Z,6.30
2023-03-22T10:00:22.071Z,5.40
2023-03-22T10:01:22.199Z,12.40
2023-03-22T10:02:21.992Z,7.50
2023-03-22T10:03:21.941Z,8.40
2023-03-22T10:04:22.032Z,5.90
2023-03-22T10:05:21.924Z,5.30
2023-03-22T10:06:21.936Z,5.70
2023-03-22T10:07:21.921Z,5.60
2023-03-22T10:08:21.907Z,7.30
2023-03-22T10:09:21.905Z,5.30
2023-03-22T10:10:21.940Z,5.10
2023-03-22T10:11:21.925Z,4.20
2023-03-22T10:12:21.883Z,4.80
2023-03-22T10:13:21.873Z,4.90
2023-03-22T10:14:21.879Z,4.80
2023-03-22T10:15:21.900Z,4.10
2023-03-22T10:16:21.911Z,4.40
2023-03-22T10:17:21.920Z,5.10
2023-03-22T10:18:21.852Z,5.40
2023-03-22T10:19:21.861Z,8.90
2023-03-22T10:20:21.900Z,5.80
2023-03-22T10:21:21.928Z,4.40
2023-03-22T10:22:21.861Z,6.90
2023-03-22T10:23:21.810Z,5.00
2023-03-22T10:24:21.845Z,4.20
2023-03-22T10:25:21.808Z,3.80
2023-03-22T10:26:21.924Z,3.70
2023-03-22T10:27:21.835Z,6.10
2023-03-22T10:28:21.796Z,6.70
2023-03-22T10:29:21.776Z,6.80
2023-03-22T10:30:21.773Z,4.60
2023-03-22T10:31:21.790Z,10.20
2023-03-22T10:32:21.815Z,8.80
2023-03-22T10:33:21.811Z,5.90
2023-03-22T10:34:21.756Z,5.30
2023-03-22T10:35:21.799Z,6.20
2023-03-22T10:36:21.739Z,5.30
2023-03-22T10:37:21.728Z,4.80
2023-03-22T10:38:21.730Z,6.20
2023-03-22T10:39:21.787Z,5.70
2023-03-22T10:40:21.704Z,10.90
2023-03-22T10:41:21.711Z,5.60
2023-03-22T10:42:21.682Z,7.00
2023-03-22T10:43:21.714Z,5.50
2023-03-22T10:44:21.693Z,5.00
2023-03-22T10:45:21.669Z,7.60
2023-03-22T10:46:21.687Z,11.70
2023-03-22T10:47:21.670Z,9.20
2023-03-22T10:48:21.779Z,7.10
2023-03-22T10:49:21.670Z,5.40
2023-03-22T10:50:21.662Z,6.90
2023-03-22T10:51:21.636Z,4.70
2023-03-22T10:52:21.625Z,7.10
2023-03-22T10:53:21.642Z,6.10
2023-03-22T10:54:21.675Z,4.90
2023-03-22T10:55:21.645Z,5.00
2023-03-22T10:56:21.639Z,4.10
2023-03-22T10:57:21.642Z,4.40
2023-03-22T10:58:21.577Z,6.70
2023-03-22T10:59:21.631Z,9.30
2023-03-22T11:00:21.811Z,3.40
2023-03-22T11:01:21.641Z,6.70
2023-03-22T11:02:21.872Z,3.20
2023-03-22T11:03:21.581Z,5.00
2023-03-22T11:04:21.576Z,4.60
2023-03-22T11:05:21.556Z,3.20
2023-03-22T11:06:21.551Z,3.80
2023-03-22T11:07:21.543Z,5.90
2023-03-22T11:08:21.537Z,5.10
2023-03-22T11:09:21.577Z,6.40
2023-03-22T11:10:21.605Z,4.10
2023-03-22T11:11:21.506Z,3.80
2023-03-22T11:12:21.508Z,2.60
2023-03-22T11:13:21.506Z,2.20
2023-03-22T11:14:21.482Z,3.20
2023-03-22T11:15:21.518Z,4.10
2023-03-22T11:16:21.569Z,4.70
2023-03-22T11:17:21.452Z,3.10
2023-03-22T11:18:21.436Z,2.00
2023-03-22T11:19:21.446Z,3.40
2023-03-22T11:20:21.485Z,2.20
2023-03-22T11:21:21.450Z,3.80
2023-03-22T11:22:21.424Z,4.60
2023-03-22T11:23:21.403Z,3.30
2023-03-22T11:24:22.415Z,3.10
2023-03-22T11:25:21.392Z,1.80
2023-03-22T11:26:21.434Z,3.80
2023-03-22T11:27:21.379Z,2.50
2023-03-22T11:28:21.375Z,6.20
2023-03-22T11:29:21.381Z,3.20
2023-03-22T11:30:21.384Z,2.10
2023-03-22T11:31:21.410Z,2.40
2023-03-22T11:32:21.411Z,3.30
2023-03-22T11:33:21.358Z,4.20
2023-03-22T11:34:21.330Z,5.10
2023-03-22T11:35:21.424Z,2.30
2023-03-22T11:36:21.367Z,5.20
2023-03-22T11:37:21.398Z,1.60
2023-03-22T11:38:21.353Z,4.30
2023-03-22T11:39:21.293Z,1.70
2023-03-22T11:40:21.321Z,1.70
2023-03-22T11:41:21.296Z,2.00
2023-03-22T11:42:21.282Z,1.70
2023-03-22T11:43:21.310Z,4.30
2023-03-22T11:44:21.265Z,2.30
2023-03-22T11:45:21.262Z,2.60
2023-03-22T11:46:21.271Z,2.00
2023-03-22T11:47:21.242Z,2.30
2023-03-22T11:48:21.404Z,1.70
2023-03-22T11:49:21.234Z,2.00
2023-03-22T11:50:21.228Z,1.70
2023-03-22T11:51:21.216Z,1.80
2023-03-22T11:52:21.188Z,2.60
2023-03-22T11:53:21.236Z,2.30
2023-03-22T11:54:21.209Z,1.70
2023-03-22T11:55:21.189Z,4.70
2023-03-22T11:56:21.163Z,3.40
2023-03-22T11:57:21.180Z,3.00
2023-03-22T11:58:22.416Z,2.10
2023-03-22T11:59:21.181Z,2.10
2023-03-22T12:00:21.161Z,3.60
2023-03-22T12:01:21.118Z,5.40
2023-03-22T12:02:21.175Z,2.60
2023-03-22T12:03:21.275Z,2.50
2023-03-22T12:04:21.178Z,2.10
2023-03-22T12:05:21.239Z,3.20
2023-03-22T12:06:21.143Z,2.70
2023-03-22T12:07:21.086Z,3.80
2023-03-22T12:08:21.070Z,2.10
2023-03-22T12:09:21.107Z,3.50
2023-03-22T12:10:21.059Z,3.20
2023-03-22T12:11:21.095Z,2.40
2023-03-22T12:12:21.042Z,1.70
2023-03-22T12:13:21.039Z,2.00
2023-03-22T12:14:21.072Z,2.10
2023-03-22T12:15:21.055Z,1.70
2023-03-22T12:16:22.327Z,2.40
2023-03-22T12:17:21.013Z,1.50
2023-03-22T12:18:21.088Z,2.60
2023-03-22T12:19:21.012Z,2.50
2023-03-22T12:20:21.018Z,1.80
2023-03-22T12:21:20.988Z,1.40
2023-03-22T12:22:20.962Z,1.70
2023-03-22T12:23:20.992Z,2.60
2023-03-22T12:24:21.006Z,2.30
2023-03-22T12:25:20.966Z,2.00
2023-03-22T12:26:20.942Z,1.90
2023-03-22T12:27:20.960Z,1.60
2023-03-22T12:28:20.921Z,3.90
2023-03-22T12:29:20.928Z,2.80
2023-03-22T12:30:20.948Z,3.20
2023-03-22T12:31:20.947Z,1.50
2023-03-22T12:32:20.920Z,6.30
2023-03-22T12:33:20.953Z,3.70
2023-03-22T12:34:20.874Z,3.60
2023-03-22T12:35:20.960Z,1.90
2023-03-22T12:36:20.926Z,1.60
2023-03-22T12:37:20.849Z,1.60
2023-03-22T12:38:20.855Z,2.00
2023-03-22T12:39:20.837Z,2.10
2023-03-22T12:40:20.848Z,4.10
2023-03-22T12:41:20.863Z,2.10
2023-03-22T12:42:20.841Z,3.60
2023-03-22T12:43:20.821Z,1.60
2023-03-22T12:44:20.831Z,3.00
2023-03-22T12:45:20.792Z,2.00
2023-03-22T12:46:20.862Z,4.20
2023-03-22T12:47:20.777Z,1.40
2023-03-22T12:48:20.864Z,1.40
2023-03-22T12:49:20.808Z,1.70
2023-03-22T12:50:20.766Z,1.60